Time;durP1;ratioP1;P1;durP2;ratioP2;P2;SDS_P1;SDS_P2;PMS_P1;PMS_P2;Temp;Humidity;BMP_temperature;BMP_pressure;BME280_temperature;BME280_humidity;BME280_pressure;Samples;Min_cycle;Max_cycle;Signal;HPM_P1;HPM_P2
2022/12/03 00:01:33;;;;;;;3.13;1.30;;;;;;;;;;4991966;28;20482;-65
2022/12/03 00:04:02;;;;;;;2.90;1.73;;;;;;;;;;4992075;28;20505;-66
2022/12/03 00:06:32;;;;;;;2.15;1.17;;;;;;;;;;4990778;28;20053;-65
2022/12/03 00:09:04;;;;;;;2.60;1.00;;;;;;;;;;4973378;28;20061;-65
2022/12/03 00:11:34;;;;;;;5.78;1.13;;;;;;;;;;4992004;28;20050;-65
2022/12/03 00:14:04;;;;;;;1.88;0.82;;;;;;;;;;4973618;28;20054;-66
2022/12/03 00:16:34;;;;;;;2.83;0.82;;;;;;;;;;4973258;28;20073;-65
2022/12/03 00:19:06;;;;;;;1.92;0.90;;;;;;;;;;4989593;28;20063;-65
2022/12/03 00:21:36;;;;;;;1.40;0.93;;;;;;;;;;4991985;28;20442;-66
2022/12/03 00:24:07;;;;;;;2.28;0.80;;;;;;;;;;4973077;28;20066;-66
2022/12/03 00:26:36;;;;;;;1.50;0.90;;;;;;;;;;4991727;28;20053;-66
2022/12/03 00:29:06;;;;;;;2.22;1.10;;;;;;;;;;4973017;28;20168;-65
2022/12/03 00:31:36;;;;;;;4.05;0.90;;;;;;;;;;4991456;28;20049;-65
2022/12/03 00:34:07;;;;;;;3.45;0.82;;;;;;;;;;4991891;28;20054;-65
2022/12/03 00:36:37;;;;;;;2.17;0.98;;;;;;;;;;4991519;28;20046;-64
2022/12/03 00:39:06;;;;;;;4.07;0.82;;;;;;;;;;4991876;28;20050;-64
2022/12/03 00:41:36;;;;;;;2.03;0.90;;;;;;;;;;4989364;28;20526;-64
2022/12/03 00:44:06;;;;;;;1.77;0.73;;;;;;;;;;4988999;28;20050;-64
2022/12/03 00:46:36;;;;;;;1.17;0.73;;;;;;;;;;4989145;28;20105;-64
2022/12/03 00:49:07;;;;;;;1.27;0.73;;;;;;;;;;4990456;28;20058;-63
2022/12/03 00:51:36;;;;;;;2.63;1.27;;;;;;;;;;4992748;28;20459;-64
2022/12/03 00:54:06;;;;;;;1.67;0.77;;;;;;;;;;4960705;28;20066;-63
2022/12/03 00:56:36;;;;;;;2.10;0.93;;;;;;;;;;4976151;28;20066;-63
2022/12/03 00:59:06;;;;;;;2.20;1.05;;;;;;;;;;4992785;28;20086;-63
2022/12/03 01:01:36;;;;;;;5.03;0.90;;;;;;;;;;4992692;28;20058;-63
2022/12/03 01:04:06;;;;;;;2.22;0.70;;;;;;;;;;4992706;28;20097;-63
2022/12/03 01:06:36;;;;;;;1.70;0.80;;;;;;;;;;4992860;28;20061;-63
2022/12/03 01:09:06;;;;;;;1.45;0.73;;;;;;;;;;5008672;28;20054;-63
2022/12/03 01:11:40;;;;;;;3.20;0.82;;;;;;;;;;4992654;28;20058;-63
2022/12/03 01:14:19;;;;;;;2.22;0.93;;;;;;;;;;4992563;28;20063;-63
2022/12/03 01:16:49;;;;;;;1.52;0.80;;;;;;;;;;4959823;28;20058;-64
2022/12/03 01:19:19;;;;;;;2.58;0.90;;;;;;;;;;4976323;28;20062;-62
2022/12/03 01:21:50;;;;;;;4.50;1.73;;;;;;;;;;4956777;28;20046;-62
2022/12/03 01:24:21;;;;;;;2.03;0.93;;;;;;;;;;4972426;28;20042;-63
2022/12/03 01:26:52;;;;;;;1.50;0.70;;;;;;;;;;4941065;28;20050;-63
2022/12/03 01:29:23;;;;;;;2.05;0.80;;;;;;;;;;4972302;28;20058;-61
2022/12/03 01:35:02;;;;;;;2.33;0.90;;;;;;;;;;4973185;28;20058;-62
2022/12/03 01:37:32;;;;;;;4.72;1.20;;;;;;;;;;4973192;28;20065;-62
2022/12/03 01:40:04;;;;;;;4.25;1.00;;;;;;;;;;4956713;28;20065;-62
2022/12/03 01:42:40;;;;;;;1.30;0.82;;;;;;;;;;4972764;28;20058;-62
2022/12/03 01:45:20;;;;;;;4.60;1.55;;;;;;;;;;4972632;28;20522;-62
2022/12/03 01:47:51;;;;;;;6.60;0.90;;;;;;;;;;4953012;29;20047;-62
2022/12/03 01:50:28;;;;;;;4.65;1.02;;;;;;;;;;4953222;29;20077;-62
2022/12/03 01:53:02;;;;;;;3.05;0.90;;;;;;;;;;4921464;29;20051;-62
2022/12/03 01:55:32;;;;;;;2.88;0.93;;;;;;;;;;4953053;29;20058;-62
2022/12/03 01:58:03;;;;;;;2.63;0.80;;;;;;;;;;4937399;29;20047;-62
2022/12/03 02:00:33;;;;;;;3.00;1.33;;;;;;;;;;4952807;28;20055;-61
2022/12/03 02:03:10;;;;;;;5.32;1.60;;;;;;;;;;4971047;28;20439;-61
2022/12/03 02:05:41;;;;;;;2.60;1.00;;;;;;;;;;4956497;28;20411;-62
2022/12/03 02:08:36;;;;;;;4.30;0.85;;;;;;;;;;4971750;28;20066;-62
2022/12/03 02:11:28;;;;;;;2.80;0.93;;;;;;;;;;4972245;28;20059;-62
2022/12/03 02:14:05;;;;;;;5.22;1.27;;;;;;;;;;4940356;28;20534;-62
2022/12/03 02:16:37;;;;;;;5.65;1.98;;;;;;;;;;4971780;28;20777;-62
2022/12/03 02:19:21;;;;;;;5.38;1.05;;;;;;;;;;4972043;28;20067;-63
2022/12/03 02:22:09;;;;;;;6.22;1.10;;;;;;;;;;4972131;28;20058;-62
2022/12/03 02:24:48;;;;;;;5.72;1.13;;;;;;;;;;4951515;28;20074;-62
2022/12/03 02:27:19;;;;;;;3.35;1.00;;;;;;;;;;4952778;29;20063;-62
2022/12/03 02:29:49;;;;;;;3.47;1.10;;;;;;;;;;4935931;29;20051;-62
2022/12/03 02:32:22;;;;;;;6.90;1.13;;;;;;;;;;4952294;29;20047;-62
2022/12/03 02:34:52;;;;;;;6.63;1.15;;;;;;;;;;4952293;29;20051;-62
2022/12/03 02:37:26;;;;;;;1.73;1.20;;;;;;;;;;4952541;29;20063;-62
2022/12/03 02:40:02;;;;;;;4.75;1.08;;;;;;;;;;4948623;29;20064;-62
2022/12/03 02:42:35;;;;;;;3.28;0.93;;;;;;;;;;4933054;29;20044;-62
2022/12/03 02:45:18;;;;;;;3.67;1.48;;;;;;;;;;4944914;29;20506;-62
2022/12/03 02:47:55;;;;;;;4.32;1.20;;;;;;;;;;4914252;29;20052;-62
2022/12/03 02:50:31;;;;;;;2.58;1.10;;;;;;;;;;4897764;29;20064;-62
2022/12/03 02:53:06;;;;;;;5.20;1.08;;;;;;;;;;4951619;29;20051;-62
2022/12/03 02:55:37;;;;;;;5.93;1.27;;;;;;;;;;4920266;29;20055;-62
2022/12/03 02:58:08;;;;;;;3.60;1.25;;;;;;;;;;4966416;28;20059;-63
2022/12/03 03:00:40;;;;;;;4.50;1.30;;;;;;;;;;4951868;29;20051;-62
2022/12/03 03:03:10;;;;;;;2.35;1.23;;;;;;;;;;4968007;28;20051;-62
2022/12/03 03:05:40;;;;;;;3.10;1.30;;;;;;;;;;4911202;29;20523;-62
2022/12/03 03:08:11;;;;;;;2.75;1.60;;;;;;;;;;4935897;29;20058;-62
2022/12/03 03:10:44;;;;;;;4.30;1.42;;;;;;;;;;4966874;28;20062;-62
2022/12/03 03:13:16;;;;;;;3.72;1.30;;;;;;;;;;4970514;28;20061;-62
2022/12/03 03:15:47;;;;;;;7.05;2.10;;;;;;;;;;4923454;28;20151;-62
2022/12/03 03:18:17;;;;;;;1.95;1.20;;;;;;;;;;4971168;28;20063;-62
2022/12/03 03:20:48;;;;;;;5.20;1.77;;;;;;;;;;4937736;28;20077;-62
2022/12/03 03:23:21;;;;;;;2.95;1.20;;;;;;;;;;4990498;28;20073;-62
2022/12/03 03:25:59;;;;;;;5.43;1.65;;;;;;;;;;5009846;28;20399;-63
2022/12/03 03:28:30;;;;;;;4.85;1.30;;;;;;;;;;5009564;28;20057;-62
2022/12/03 03:31:03;;;;;;;3.97;1.50;;;;;;;;;;5022222;28;20058;-62
2022/12/03 03:33:35;;;;;;;3.58;1.42;;;;;;;;;;4996572;28;20050;-62
2022/12/03 03:36:06;;;;;;;4.38;1.20;;;;;;;;;;5029477;28;20065;-62
2022/12/03 03:38:37;;;;;;;6.88;1.80;;;;;;;;;;5029264;28;20701;-62
2022/12/03 03:41:10;;;;;;;2.97;1.60;;;;;;;;;;5029844;28;20068;-62
2022/12/03 03:43:43;;;;;;;4.25;1.40;;;;;;;;;;5012416;28;20053;-62
2022/12/03 03:46:14;;;;;;;6.45;1.63;;;;;;;;;;5029408;28;20057;-62
2022/12/03 03:48:44;;;;;;;4.78;2.00;;;;;;;;;;5029321;28;20064;-62
2022/12/03 03:51:18;;;;;;;2.63;1.48;;;;;;;;;;4963974;28;20562;-62
2022/12/03 03:53:49;;;;;;;5.18;1.63;;;;;;;;;;5029019;28;20049;-62
2022/12/03 03:56:21;;;;;;;6.05;1.75;;;;;;;;;;4972125;28;20054;-62
2022/12/03 03:58:51;;;;;;;3.35;1.60;;;;;;;;;;5009175;28;20057;-62
2022/12/03 04:01:24;;;;;;;10.95;1.70;;;;;;;;;;5009359;28;20516;-62
2022/12/03 04:03:55;;;;;;;6.53;1.33;;;;;;;;;;5008842;28;20061;-63
2022/12/03 04:06:27;;;;;;;2.20;1.30;;;;;;;;;;5009163;28;20510;-62
2022/12/03 04:08:58;;;;;;;7.10;1.63;;;;;;;;;;5009038;28;20050;-62
2022/12/03 04:14:16;;;;;;;7.38;1.85;;;;;;;;;;5009087;28;20054;-62
2022/12/03 04:16:46;;;;;;;4.68;1.70;;;;;;;;;;5009216;28;20068;-62
2022/12/03 04:19:17;;;;;;;6.35;2.15;;;;;;;;;;4992476;28;20057;-62
2022/12/03 04:24:36;;;;;;;5.80;1.85;;;;;;;;;;5008033;28;20558;-62
2022/12/03 04:29:53;;;;;;;5.75;1.90;;;;;;;;;;5008600;28;20122;-62
2022/12/03 04:38:01;;;;;;;5.18;1.98;;;;;;;;;;4991781;28;20368;-63
2022/12/03 04:43:19;;;;;;;8.70;2.03;;;;;;;;;;4991617;28;20061;-63
2022/12/03 04:45:49;;;;;;;4.03;1.83;;;;;;;;;;4988894;28;20090;-62
2022/12/03 04:48:19;;;;;;;5.00;2.05;;;;;;;;;;4989095;28;20147;-63
2022/12/03 04:50:49;;;;;;;4.45;1.70;;;;;;;;;;4988880;28;20051;-63
2022/12/03 04:53:19;;;;;;;5.45;1.77;;;;;;;;;;4989188;28;20042;-63
2022/12/03 04:55:49;;;;;;;5.53;2.00;;;;;;;;;;4988749;28;20418;-62
2022/12/03 04:58:18;;;;;;;7.30;1.80;;;;;;;;;;4987931;28;20621;-62
2022/12/03 05:00:49;;;;;;;8.60;2.17;;;;;;;;;;4953087;28;20495;-62
2022/12/03 05:03:18;;;;;;;4.57;2.20;;;;;;;;;;4969523;28;20423;-62
2022/12/03 05:05:48;;;;;;;5.82;1.88;;;;;;;;;;4937386;28;20051;-62
2022/12/03 05:08:18;;;;;;;6.32;1.90;;;;;;;;;;4969797;28;20190;-62
2022/12/03 05:10:48;;;;;;;4.80;1.90;;;;;;;;;;4969416;28;20074;-62
2022/12/03 05:13:18;;;;;;;4.38;1.83;;;;;;;;;;4953844;28;20602;-62
2022/12/03 05:15:47;;;;;;;4.68;1.80;;;;;;;;;;4969923;28;20066;-62
2022/12/03 05:18:17;;;;;;;7.13;1.90;;;;;;;;;;4969605;28;20506;-62
2022/12/03 05:20:47;;;;;;;3.92;2.10;;;;;;;;;;4969517;28;20066;-62
2022/12/03 05:23:21;;;;;;;5.95;1.95;;;;;;;;;;4960611;28;20066;-63
2022/12/03 05:25:51;;;;;;;5.75;2.35;;;;;;;;;;4950161;29;20500;-62
2022/12/03 05:28:23;;;;;;;8.77;2.58;;;;;;;;;;4949927;29;20515;-62
2022/12/03 05:30:53;;;;;;;5.78;2.13;;;;;;;;;;4949839;29;20405;-62
2022/12/03 05:33:23;;;;;;;4.03;1.67;;;;;;;;;;4949782;29;20062;-62
2022/12/03 05:35:52;;;;;;;5.35;2.17;;;;;;;;;;4953019;28;20055;-61
2022/12/03 05:38:23;;;;;;;6.50;2.42;;;;;;;;;;4946183;28;20062;-62
2022/12/03 05:40:53;;;;;;;4.97;2.00;;;;;;;;;;4994799;28;20057;-62
2022/12/03 05:43:23;;;;;;;9.45;2.13;;;;;;;;;;4994559;28;20065;-62
2022/12/03 05:45:53;;;;;;;3.42;1.65;;;;;;;;;;4994834;28;20057;-62
2022/12/03 05:48:22;;;;;;;3.33;1.80;;;;;;;;;;4994535;28;20500;-62
2022/12/03 05:50:52;;;;;;;5.22;1.60;;;;;;;;;;4960082;28;20050;-62
2022/12/03 05:53:22;;;;;;;5.55;1.52;;;;;;;;;;4994429;28;20079;-62
2022/12/03 05:55:52;;;;;;;4.75;2.03;;;;;;;;;;4994492;28;20043;-62
2022/12/03 05:58:22;;;;;;;2.80;1.60;;;;;;;;;;4994560;28;20077;-62
2022/12/03 06:00:52;;;;;;;4.68;1.95;;;;;;;;;;4993103;28;20058;-62
2022/12/03 06:03:22;;;;;;;3.70;1.75;;;;;;;;;;4994371;28;20042;-63
2022/12/03 06:05:52;;;;;;;5.72;1.77;;;;;;;;;;4994382;28;20035;-62
2022/12/03 06:08:22;;;;;;;4.97;1.52;;;;;;;;;;4994059;28;20061;-62
2022/12/03 06:10:51;;;;;;;2.95;1.77;;;;;;;;;;5010869;28;20057;-62
2022/12/03 06:13:22;;;;;;;4.78;2.00;;;;;;;;;;5011366;28;20065;-62
2022/12/03 06:15:51;;;;;;;4.75;1.52;;;;;;;;;;5010989;28;20057;-61
2022/12/03 06:18:21;;;;;;;3.13;1.63;;;;;;;;;;5010850;28;20070;-62
2022/12/03 06:20:51;;;;;;;4.18;1.45;;;;;;;;;;4971884;28;20043;-62
2022/12/03 06:23:21;;;;;;;3.20;1.50;;;;;;;;;;4971843;28;20061;-62
2022/12/03 06:25:51;;;;;;;7.55;1.90;;;;;;;;;;4972132;28;20054;-62
2022/12/03 06:28:20;;;;;;;3.05;1.70;;;;;;;;;;4971534;28;20059;-62
2022/12/03 06:30:50;;;;;;;3.42;1.60;;;;;;;;;;4939743;28;20054;-62
2022/12/03 06:33:21;;;;;;;4.35;1.55;;;;;;;;;;4971869;28;20050;-61
2022/12/03 06:35:51;;;;;;;4.32;2.13;;;;;;;;;;4971749;28;20067;-62
2022/12/03 06:38:21;;;;;;;2.20;1.30;;;;;;;;;;4971699;28;20062;-63
2022/12/03 06:40:51;;;;;;;2.67;1.25;;;;;;;;;;4972008;28;20047;-62
2022/12/03 06:43:21;;;;;;;3.25;1.58;;;;;;;;;;4971897;28;20051;-63
2022/12/03 06:45:51;;;;;;;6.20;1.65;;;;;;;;;;4986821;28;20518;-63
2022/12/03 06:48:21;;;;;;;2.83;1.15;;;;;;;;;;4939423;28;20581;-62
2022/12/03 06:50:52;;;;;;;5.18;1.40;;;;;;;;;;4939250;28;20143;-63
2022/12/03 06:53:22;;;;;;;3.58;1.23;;;;;;;;;;4971929;28;20065;-63
2022/12/03 06:55:51;;;;;;;3.88;1.45;;;;;;;;;;4971503;28;20058;-62
2022/12/03 06:58:21;;;;;;;6.38;1.50;;;;;;;;;;4948412;28;20050;-62
2022/12/03 07:00:51;;;;;;;2.28;1.00;;;;;;;;;;4993520;28;20050;-62
2022/12/03 07:03:21;;;;;;;5.13;1.10;;;;;;;;;;4993447;28;20057;-62
2022/12/03 07:05:51;;;;;;;2.40;1.20;;;;;;;;;;4993220;28;20049;-63
2022/12/03 07:08:21;;;;;;;5.40;1.17;;;;;;;;;;4993223;28;20506;-62
2022/12/03 07:10:51;;;;;;;2.75;1.23;;;;;;;;;;4991806;28;20046;-62
2022/12/03 07:13:21;;;;;;;2.83;1.27;;;;;;;;;;4992912;28;20065;-63
2022/12/03 07:15:52;;;;;;;4.07;1.08;;;;;;;;;;5007018;28;20057;-62
2022/12/03 07:18:23;;;;;;;3.45;1.48;;;;;;;;;;4990721;28;20046;-62
2022/12/03 07:20:53;;;;;;;3.42;1.50;;;;;;;;;;4992799;28;20406;-62
2022/12/03 07:23:23;;;;;;;2.13;1.08;;;;;;;;;;4993123;28;20062;-62
2022/12/03 07:25:52;;;;;;;2.92;1.35;;;;;;;;;;4992708;28;20050;-62
2022/12/03 07:28:22;;;;;;;5.78;1.20;;;;;;;;;;4973480;28;20537;-62
2022/12/03 07:30:52;;;;;;;3.47;1.10;;;;;;;;;;4989863;28;20062;-62
2022/12/03 07:33:22;;;;;;;2.65;1.73;;;;;;;;;;4957975;28;20054;-62
2022/12/03 07:35:52;;;;;;;2.53;1.30;;;;;;;;;;4990028;28;20054;-62
2022/12/03 07:38:22;;;;;;;3.85;1.27;;;;;;;;;;4990022;28;20062;-62
2022/12/03 07:40:52;;;;;;;2.65;1.40;;;;;;;;;;4990296;28;20062;-62
2022/12/03 07:43:21;;;;;;;6.35;1.40;;;;;;;;;;4928210;29;20673;-62
2022/12/03 07:45:51;;;;;;;6.47;1.08;;;;;;;;;;4897117;29;20064;-62
2022/12/03 07:48:21;;;;;;;2.80;1.40;;;;;;;;;;4913091;29;20056;-62
2022/12/03 07:50:51;;;;;;;4.25;1.23;;;;;;;;;;4931681;29;20055;-62
2022/12/03 07:53:21;;;;;;;3.63;1.42;;;;;;;;;;4931856;29;20068;-62
2022/12/03 07:55:52;;;;;;;3.80;1.27;;;;;;;;;;4900194;29;20129;-63
2022/12/03 07:58:22;;;;;;;2.60;1.58;;;;;;;;;;4912585;29;20056;-63
2022/12/03 08:00:52;;;;;;;1.90;0.93;;;;;;;;;;4912348;29;20071;-62
2022/12/03 08:03:22;;;;;;;3.58;1.50;;;;;;;;;;4912918;29;20091;-63
2022/12/03 08:05:51;;;;;;;8.40;1.45;;;;;;;;;;4896917;29;20064;-63
2022/12/03 08:08:21;;;;;;;2.40;1.20;;;;;;;;;;4859383;29;20053;-62
2022/12/03 08:10:52;;;;;;;3.60;1.40;;;;;;;;;;4874838;29;20087;-62
2022/12/03 08:13:22;;;;;;;3.97;1.40;;;;;;;;;;4867211;29;20065;-62
2022/12/03 08:15:52;;;;;;;4.20;1.58;;;;;;;;;;4856806;29;20061;-62
2022/12/03 08:18:21;;;;;;;6.80;1.48;;;;;;;;;;4886781;29;20077;-62
2022/12/03 08:20:52;;;;;;;2.45;1.45;;;;;;;;;;4850883;29;20056;-62
2022/12/03 08:23:23;;;;;;;4.30;1.58;;;;;;;;;;4912568;29;20571;-62
2022/12/03 08:25:54;;;;;;;5.50;2.05;;;;;;;;;;4928453;29;20078;-63
2022/12/03 08:28:26;;;;;;;4.25;1.60;;;;;;;;;;4939562;28;20059;-63
2022/12/03 08:31:18;;;;;;;3.30;1.58;;;;;;;;;;4959789;28;20051;-62
2022/12/03 08:33:50;;;;;;;4.63;1.52;;;;;;;;;;4953747;28;20062;-62
2022/12/03 08:36:28;;;;;;;4.13;1.48;;;;;;;;;;4934210;28;20069;-62
2022/12/03 08:39:14;;;;;;;5.85;1.48;;;;;;;;;;4989097;28;20077;-62
2022/12/03 08:44:40;;;;;;;2.78;1.70;;;;;;;;;;4956588;28;20057;-62
2022/12/03 08:47:19;;;;;;;6.05;1.52;;;;;;;;;;4989192;28;20066;-62
2022/12/03 08:50:26;;;;;;;3.80;1.30;;;;;;;;;;4988725;28;20495;-62
2022/12/03 08:53:34;;;;;;;3.60;1.58;;;;;;;;;;4989227;28;20069;-62
2022/12/03 08:56:26;;;;;;;4.90;2.05;;;;;;;;;;4976150;28;21187;-62
2022/12/03 08:58:59;;;;;;;6.75;1.55;;;;;;;;;;4960281;28;20058;-62
2022/12/03 09:01:40;;;;;;;3.78;1.65;;;;;;;;;;4991882;28;20050;-62
2022/12/03 09:04:22;;;;;;;5.57;1.65;;;;;;;;;;5008849;28;20588;-62
2022/12/03 09:06:54;;;;;;;6.20;1.67;;;;;;;;;;4959680;28;20062;-62
2022/12/03 09:09:24;;;;;;;4.50;1.90;;;;;;;;;;4993128;28;20054;-62
2022/12/03 09:11:55;;;;;;;3.40;1.95;;;;;;;;;;4963404;28;20080;-62
2022/12/03 09:14:26;;;;;;;2.75;1.45;;;;;;;;;;4963876;28;20046;-61
2022/12/03 09:16:57;;;;;;;2.45;1.48;;;;;;;;;;5012344;28;20083;-62
2022/12/03 09:19:29;;;;;;;5.00;1.55;;;;;;;;;;5028674;28;20054;-61
2022/12/03 09:22:00;;;;;;;5.53;1.98;;;;;;;;;;4963571;28;20553;-61
2022/12/03 09:24:30;;;;;;;4.55;1.77;;;;;;;;;;5012203;28;20058;-61
2022/12/03 09:26:59;;;;;;;3.50;1.88;;;;;;;;;;5012120;28;20534;-61
2022/12/03 09:29:30;;;;;;;3.83;1.45;;;;;;;;;;5011789;28;20065;-61
2022/12/03 09:32:00;;;;;;;4.05;1.73;;;;;;;;;;4994404;28;20053;-61
2022/12/03 09:34:30;;;;;;;2.75;1.40;;;;;;;;;;4992470;28;20054;-61
2022/12/03 09:37:01;;;;;;;2.85;1.58;;;;;;;;;;4992415;28;20058;-61
2022/12/03 09:39:31;;;;;;;4.07;1.70;;;;;;;;;;4992450;28;20190;-62
2022/12/03 09:42:01;;;;;;;10.13;2.28;;;;;;;;;;4992127;28;20453;-62
2022/12/03 09:44:33;;;;;;;4.57;1.77;;;;;;;;;;4992383;28;20534;-62
2022/12/03 09:47:04;;;;;;;7.22;1.60;;;;;;;;;;4992058;28;20042;-62
2022/12/03 09:49:37;;;;;;;3.88;2.38;;;;;;;;;;4935665;28;20073;-61
2022/12/03 09:52:07;;;;;;;5.07;2.92;;;;;;;;;;4992547;28;20422;-62
2022/12/03 09:54:38;;;;;;;5.97;2.25;;;;;;;;;;4994518;28;20053;-61
2022/12/03 09:57:16;;;;;;;6.50;2.15;;;;;;;;;;4975802;28;20066;-61
2022/12/03 09:59:46;;;;;;;6.43;2.17;;;;;;;;;;4994119;28;20054;-62
2022/12/03 10:02:25;;;;;;;4.32;1.73;;;;;;;;;;4976047;28;20069;-62
2022/12/03 10:04:56;;;;;;;4.20;1.70;;;;;;;;;;4994159;28;20050;-62
2022/12/03 10:07:27;;;;;;;4.68;1.73;;;;;;;;;;4959915;28;20054;-62
2022/12/03 10:09:56;;;;;;;2.88;1.80;;;;;;;;;;4992974;28;20414;-62
2022/12/03 10:12:27;;;;;;;3.53;1.17;;;;;;;;;;4994598;28;20050;-62
2022/12/03 10:14:57;;;;;;;2.20;1.42;;;;;;;;;;5010787;28;20423;-62
2022/12/03 10:17:30;;;;;;;2.75;1.10;;;;;;;;;;5011279;28;20057;-62
2022/12/03 10:20:01;;;;;;;1.80;1.20;;;;;;;;;;5011186;28;20061;-62
2022/12/03 10:22:35;;;;;;;3.20;1.08;;;;;;;;;;5011010;28;20050;-62
2022/12/03 10:25:12;;;;;;;4.72;1.38;;;;;;;;;;5011111;28;20058;-62
2022/12/03 10:28:01;;;;;;;2.63;1.50;;;;;;;;;;4994405;28;20506;-63
2022/12/03 10:30:31;;;;;;;6.07;0.95;;;;;;;;;;5011126;28;20061;-62
2022/12/03 10:33:12;;;;;;;4.00;0.93;;;;;;;;;;5010677;28;20065;-62
2022/12/03 10:35:47;;;;;;;3.60;1.10;;;;;;;;;;5010891;28;20597;-62
2022/12/03 10:38:17;;;;;;;1.88;1.00;;;;;;;;;;5011067;28;20062;-62
2022/12/03 10:40:47;;;;;;;3.38;1.00;;;;;;;;;;4978166;28;20065;-63
2022/12/03 10:43:22;;;;;;;4.90;1.15;;;;;;;;;;5010731;28;20061;-62
2022/12/03 10:46:02;;;;;;;3.28;0.90;;;;;;;;;;4977831;28;20049;-63
2022/12/03 10:48:33;;;;;;;2.05;0.90;;;;;;;;;;5010777;28;20046;-62
2022/12/03 10:51:06;;;;;;;2.42;0.98;;;;;;;;;;5010489;28;20572;-62
2022/12/03 10:53:38;;;;;;;2.88;1.00;;;;;;;;;;5010135;28;20057;-62
2022/12/03 10:56:17;;;;;;;10.52;9.43;;;;;;;;;;5010129;28;20060;-62
2022/12/03 10:58:47;;;;;;;2.03;1.20;;;;;;;;;;5010212;28;20104;-62
2022/12/03 11:01:19;;;;;;;1.73;1.05;;;;;;;;;;5010112;28;20069;-62
2022/12/03 11:03:50;;;;;;;1.98;1.00;;;;;;;;;;5010606;28;20065;-62
2022/12/03 11:06:22;;;;;;;3.13;1.70;;;;;;;;;;5010216;28;20429;-62
2022/12/03 11:08:55;;;;;;;1.90;1.48;;;;;;;;;;5010352;28;20042;-62
2022/12/03 11:11:31;;;;;;;2.88;1.00;;;;;;;;;;4993260;28;20506;-62
2022/12/03 11:14:03;;;;;;;2.03;1.42;;;;;;;;;;4990633;28;20198;-63
2022/12/03 11:16:39;;;;;;;1.55;1.05;;;;;;;;;;4990587;28;20054;-62
2022/12/03 11:19:16;;;;;;;1.85;0.90;;;;;;;;;;4992507;28;20059;-62
2022/12/03 11:22:05;;;;;;;1.77;1.05;;;;;;;;;;4993432;28;20054;-62
2022/12/03 11:24:36;;;;;;;2.15;0.95;;;;;;;;;;5006719;28;20055;-63
2022/12/03 11:27:17;;;;;;;2.63;0.93;;;;;;;;;;4993188;28;20050;-64
2022/12/03 11:29:52;;;;;;;5.13;0.90;;;;;;;;;;5004717;28;20069;-62
2022/12/03 11:32:38;;;;;;;1.80;0.90;;;;;;;;;;5021245;28;20061;-63
2022/12/03 11:35:25;;;;;;;1.90;0.80;;;;;;;;;;5008335;28;20049;-62
2022/12/03 11:38:34;;;;;;;3.17;0.98;;;;;;;;;;4992938;28;20057;-62
2022/12/03 11:41:18;;;;;;;2.10;1.20;;;;;;;;;;5011976;28;20413;-62
2022/12/03 11:43:52;;;;;;;1.15;0.70;;;;;;;;;;4977194;28;20081;-62
2022/12/03 11:46:24;;;;;;;1.85;0.82;;;;;;;;;;5009706;28;20081;-63
2022/12/03 11:48:57;;;;;;;2.03;1.10;;;;;;;;;;5009466;28;20057;-62
2022/12/03 11:51:29;;;;;;;2.60;0.85;;;;;;;;;;5008233;28;20049;-62
2022/12/03 11:54:00;;;;;;;2.33;1.40;;;;;;;;;;4976378;28;20058;-62
2022/12/03 11:56:30;;;;;;;2.92;1.52;;;;;;;;;;5008748;28;20050;-62
2022/12/03 11:59:03;;;;;;;1.70;0.80;;;;;;;;;;4975956;28;20548;-62
2022/12/03 12:01:34;;;;;;;;;;;;;;;;;;5014735;28;20042;-62
2022/12/03 12:04:25;;;;;;;2.53;1.10;;;;;;;;;;4951238;28;19921;-62
2022/12/03 12:06:55;;;;;;;2.10;0.98;;;;;;;;;;5007550;28;20046;-62
2022/12/03 12:10:00;;;;;;;2.22;1.00;;;;;;;;;;4992773;28;20061;-63
2022/12/03 12:12:41;;;;;;;1.50;0.75;;;;;;;;;;4970082;28;20043;-64
2022/12/03 12:15:40;;;;;;;3.83;2.03;;;;;;;;;;4969899;28;20072;-63
2022/12/03 12:18:34;;;;;;;2.17;1.10;;;;;;;;;;4969813;28;20058;-64
2022/12/03 12:21:40;;;;;;;3.85;0.95;;;;;;;;;;4969920;28;20545;-63
2022/12/03 12:24:41;;;;;;;7.72;3.65;;;;;;;;;;4937027;28;20054;-63
2022/12/03 12:27:15;;;;;;;1.83;1.10;;;;;;;;;;4969617;28;20081;-63
2022/12/03 12:29:50;;;;;;;2.08;1.42;;;;;;;;;;4983889;28;20058;-62
2022/12/03 12:32:45;;;;;;;5.20;1.40;;;;;;;;;;4972710;28;20149;-62
2022/12/03 12:35:23;;;;;;;5.25;1.90;;;;;;;;;;5004997;28;20066;-65
2022/12/03 12:38:00;;;;;;;1.95;1.20;;;;;;;;;;4989190;28;20053;-63
2022/12/03 12:40:33;;;;;;;2.38;1.10;;;;;;;;;;4940723;28;20061;-64
2022/12/03 12:43:22;;;;;;;5.20;0.93;;;;;;;;;;4989119;28;20077;-62
2022/12/03 12:45:55;;;;;;;2.53;0.98;;;;;;;;;;4964422;28;20053;-64
2022/12/03 12:48:30;;;;;;;1.40;0.95;;;;;;;;;;5029116;28;20057;-62
2022/12/03 12:51:14;;;;;;;2.50;0.85;;;;;;;;;;5012247;28;20061;-63
2022/12/03 12:53:44;;;;;;;2.40;1.10;;;;;;;;;;5012556;28;20057;-63
2022/12/03 12:56:23;;;;;;;9.18;6.10;;;;;;;;;;4996662;28;20054;-63
2022/12/03 12:58:54;;;;;;;2.55;0.95;;;;;;;;;;5012127;28;20046;-63
2022/12/03 13:01:25;;;;;;;1.88;1.40;;;;;;;;;;5012170;28;20478;-63
2022/12/03 13:03:56;;;;;;;2.90;1.00;;;;;;;;;;4992285;28;20053;-62
2022/12/03 13:06:29;;;;;;;2.10;1.00;;;;;;;;;;4976811;28;20055;-63
2022/12/03 13:09:00;;;;;;;3.08;0.90;;;;;;;;;;4959905;28;20192;-63
2022/12/03 13:11:35;;;;;;;1.35;0.70;;;;;;;;;;4976342;28;20481;-62
2022/12/03 13:14:23;;;;;;;1.70;0.93;;;;;;;;;;4960395;28;20060;-62
2022/12/03 13:16:55;;;;;;;5.20;2.50;;;;;;;;;;4992266;28;20054;-63
2022/12/03 13:19:32;;;;;;;3.60;1.10;;;;;;;;;;4960019;28;20061;-63
2022/12/03 13:22:20;;;;;;;1.98;1.20;;;;;;;;;;4992008;28;20058;-63
2022/12/03 13:24:53;;;;;;;2.83;1.27;;;;;;;;;;4992227;28;20050;-62
2022/12/03 13:27:34;;;;;;;3.80;1.08;;;;;;;;;;4976729;28;20061;-62
2022/12/03 13:30:19;;;;;;;2.58;1.30;;;;;;;;;;5011202;28;20061;-63
2022/12/03 13:32:50;;;;;;;7.65;1.00;;;;;;;;;;4995227;28;20054;-63
2022/12/03 13:35:34;;;;;;;1.85;0.80;;;;;;;;;;5028087;28;20561;-63
2022/12/03 13:38:14;;;;;;;2.63;0.90;;;;;;;;;;4991953;28;20050;-64
2022/12/03 13:40:45;;;;;;;1.40;0.80;;;;;;;;;;4946781;28;20046;-64
2022/12/03 13:43:18;;;;;;;1.80;1.00;;;;;;;;;;5013927;28;20045;-64
2022/12/03 13:45:52;;;;;;;2.17;1.08;;;;;;;;;;4979613;28;20060;-63
2022/12/03 13:48:23;;;;;;;2.08;0.70;;;;;;;;;;5014166;28;20049;-63
2022/12/03 13:50:53;;;;;;;2.13;0.80;;;;;;;;;;5007869;28;20046;-64
2022/12/03 13:53:27;;;;;;;3.95;0.90;;;;;;;;;;4974905;28;20066;-65
2022/12/03 13:56:21;;;;;;;2.97;0.88;;;;;;;;;;4975563;28;20058;-64
2022/12/03 13:58:52;;;;;;;1.83;0.85;;;;;;;;;;5007729;28;20054;-63
2022/12/03 14:01:23;;;;;;;1.23;0.80;;;;;;;;;;4959382;28;20058;-63
2022/12/03 14:03:54;;;;;;;5.82;1.33;;;;;;;;;;5007702;28;20690;-65
2022/12/03 14:06:23;;;;;;;2.80;0.90;;;;;;;;;;5030388;28;20053;-65
2022/12/03 14:08:53;;;;;;;2.05;0.90;;;;;;;;;;5030771;28;20532;-63
2022/12/03 14:14:11;;;;;;;4.25;0.95;;;;;;;;;;5030653;28;20056;-63
2022/12/03 14:16:42;;;;;;;2.25;1.27;;;;;;;;;;5030843;28;20049;-63
2022/12/03 14:19:12;;;;;;;2.20;0.93;;;;;;;;;;5046695;28;20061;-64
2022/12/03 14:21:42;;;;;;;2.60;1.00;;;;;;;;;;5030051;28;20050;-65
2022/12/03 14:24:11;;;;;;;1.92;1.05;;;;;;;;;;4997330;28;20634;-63
2022/12/03 14:26:41;;;;;;;2.08;1.30;;;;;;;;;;4997294;28;20068;-63
2022/12/03 14:29:11;;;;;;;2.08;0.90;;;;;;;;;;5013814;28;20049;-63
2022/12/03 14:31:41;;;;;;;1.15;0.90;;;;;;;;;;5013735;28;20065;-62
2022/12/03 14:34:11;;;;;;;1.23;0.95;;;;;;;;;;4998134;28;20449;-62
2022/12/03 14:36:41;;;;;;;2.95;1.05;;;;;;;;;;5030043;28;20057;-63
2022/12/03 14:39:11;;;;;;;0.90;0.73;;;;;;;;;;5030328;28;20403;-62
2022/12/03 14:44:29;;;;;;;1.17;0.88;;;;;;;;;;4983844;28;20062;-62
2022/12/03 14:46:59;;;;;;;2.50;1.10;;;;;;;;;;4971054;28;20063;-62
2022/12/03 14:49:29;;;;;;;3.13;1.08;;;;;;;;;;4970824;28;20043;-63
2022/12/03 14:51:59;;;;;;;1.58;0.90;;;;;;;;;;4971019;28;20046;-63
2022/12/03 14:54:30;;;;;;;3.28;1.00;;;;;;;;;;4970891;28;20059;-63
2022/12/03 14:57:00;;;;;;;2.33;1.65;;;;;;;;;;4963008;28;20050;-64
2022/12/03 14:59:30;;;;;;;2.20;1.10;;;;;;;;;;4965719;28;20572;-66
2022/12/03 15:02:00;;;;;;;3.08;1.02;;;;;;;;;;4967414;28;20419;-62
2022/12/03 15:04:30;;;;;;;2.47;1.20;;;;;;;;;;4969853;28;20047;-62
2022/12/03 15:07:00;;;;;;;15.45;3.88;;;;;;;;;;4969056;28;20058;-62
2022/12/03 15:09:31;;;;;;;10.40;2.03;;;;;;;;;;4968925;28;20035;-64
2022/12/03 15:12:03;;;;;;;2.05;0.90;;;;;;;;;;4968245;28;20505;-65
2022/12/03 15:14:33;;;;;;;4.20;1.27;;;;;;;;;;4985187;28;21319;-66
2022/12/03 15:17:05;;;;;;;3.70;1.30;;;;;;;;;;4936524;28;20046;-64
2022/12/03 15:19:35;;;;;;;3.92;1.20;;;;;;;;;;5035448;28;20049;-65
2022/12/03 15:22:05;;;;;;;4.85;1.73;;;;;;;;;;5044217;28;20061;-65
2022/12/03 15:24:35;;;;;;;2.50;0.98;;;;;;;;;;5045688;28;20065;-62
2022/12/03 15:27:04;;;;;;;3.10;1.30;;;;;;;;;;4999208;28;20052;-63
2022/12/03 15:29:35;;;;;;;2.10;1.10;;;;;;;;;;4996114;28;20060;-63
2022/12/03 15:32:05;;;;;;;4.68;1.38;;;;;;;;;;5044628;28;20052;-62
2022/12/03 15:34:35;;;;;;;1.60;1.10;;;;;;;;;;5046306;28;20500;-67
2022/12/03 15:37:05;;;;;;;2.78;1.13;;;;;;;;;;5029354;28;20053;-64
2022/12/03 15:39:36;;;;;;;1.00;0.90;;;;;;;;;;5029137;28;20064;-63
2022/12/03 15:42:15;;;;;;;2.10;1.10;;;;;;;;;;5002246;28;20048;-61
2022/12/03 15:44:46;;;;;;;1.85;1.08;;;;;;;;;;5056497;28;20064;-64
2022/12/03 15:47:17;;;;;;;3.67;1.00;;;;;;;;;;5045842;28;20044;-62